Alva, KY

8:38 AM EDT on April 19, 2015 (GMT -0400)
White Rocks View | | Change Station
CLOSE
Current Station
Personal Weather Station
Location: Rose Hill, VA
Elevation: 1470 ft
Nearby Weather Stations

Elev 1470 ft 36.65 °N, 83.40 °W | Updated 4 seconds ago

Rain
Rain
60.5 °F
Feels Like 60.5 °F
N
6.0
Wind Variable Wind from NNE
Gusts 6.0 mph

Today
High -- | Low -- °F
--% Chance of Precip.
Yesterday
High -- | Low -- °F
Precip. -- in
6:54 AM 8:11 PM
New Moon, 1% visible
Pressure 29.88 in
Visibility 10.0 miles
Clouds Scattered Clouds 7000 ft
Overcast 10000 ft
Dew Point 60 °F
Humidity 97%
Rainfall 0.09 in
Snow Depth Not available.
UV 0 out of 12
Pollen 2.50 out of 12
Air Quality Not available.
Flu Activity Local Activity
METAR KI35 191215Z AUTO 16004KT 10SM SCT070 OVC100 17/13 A2988 RMK AO1

More Conditions Fewer Conditions

Pressure 29.88 in
Visibility 10.0 miles
Clouds Scattered Clouds 7000 ft
Overcast 10000 ft
Dew Point 60 °F
Humidity 97%
Rainfall 0.09 in
Snow Depth Not available.
UV 0 out of 12
Pollen 2.50 out of 12
Air Quality Not available.
Flu Activity Local Activity
METAR KI35 191215Z AUTO 16004KT 10SM SCT070 OVC100 17/13 A2988 RMK AO1

More Conditions Fewer Conditions

10-Day Weather Forecast

Almanac

Astronomy

Apr. 19, 2015 Rise Set
Actual Time
Civil Twilight
Nautical Twilight
Astronomical Twilight
Moon
Length of Visible Light
Length of Day
Tomorrow will be .
, % of the Moon is Illuminated

Today's Extremes

State Highs State Lows

Community

WunderPhotos

Upload Photos

1,814,771 photos uploaded!

WunderBlogs® & News

Nearby

Air Quality

  Air Quality AQ Index Pollutant
Not available.

Snow Depth

Station Depth Elevation

Earthquake Activity

City Distance Mag. Time & Date
Minimum magnitude displayed is 2.5.

Coastal Water Temperatures

Place Temperature

Stations

Nearby Weather Stations

Station Location Temp. Windchill Dew Point Humidity Wind Precip. Elev Updated Type